Bruce, Michigan
Current Conditions -  °F | °C
As of 2:55 PM on Saturday 20 Dec 2014 (Local Time) from KMTC Reporting Station
Overcast Overcast  
Wind Chill: 26°   Ceiling: 2700
Heat Index: 30°   Visibility: 10mi
Dew Point: 21°   Wind: 5mph
Humidity: 68%   Direction: 290°WNW
Pressure: 30.24"   Gusts: NA
Location:  42.8454°N, 83.0393°W
Report Text: KMTC 201955Z 29004KT 10SM OVC027 M01/M06 A3024 RMK SLP258 T10091062
Loading
Personal Weather Stations






























Interactive Weather Map New forecast layout! Learn more

10-Day Weather Forecast

Advertisements
Track Severe Weather on mobile